Terminal Aerodrome Forecast
Issued by NWS

Home | Current Version | Previous Version | Text Only | Print | Product List | Glossary On
Versions: 1 2 3 4 5 6 7 8 9 10 11 12
393
FTUS42 TJSJ 061739
TAFJMZ
TAF
TJMZ 061739Z 0618/0718 20010KT P6SM VCSH SCT025 BKN040
     FM062330 15007KT P6SM FEW030 SCT090
     FM071200 05003KT P6SM FEW100
     FM071500 21010KT P6SM VCSH FEW025 SCT040
      AMD NOT SKED=

USA.gov is the U.S. government's official web portal to all federal, state and local government web resources and services.